ZSSS

Shanghai Hongqiao International

Airport
ICAO code
ZSSS
Summary
ICAO Region
APAC
ICAO Territory
Location

Puxi, Shanghai,

Coordinates
31° 11' 38" N , 121° 20' 47" E
KCC
Metar
Observation
ZSSS 091830Z 29002MPS 4000 BR BKN004 OVC026 11/11 Q1020 NOSIG
Station
Shanghai / Hongqiao
Date/Time
2022-12-09 18:30:00
Wind direction
290°
Lowest cloud amount
broken clouds
Temperature
11°C
Dew point
11°C
Humidity
100%
QNH
1020 hPa
Weather condition
n/a

Description

International airport serving the city of Shanghai.

Climatology

Humid “subtropical” climate (Köppen climate classification Cfa) - characterized by hot, humid summers and cool winters. Significant amounts of precipitation occur in all seasons in most areas. Winter rainfall (and sometimes snowfall) is associated with large storms that the westerlies steer from west to east. Most summer rainfall occurs during thunderstorms.

Airport map

Aerial View

SKYbrary Partners:

Safety knowledge contributed by: